KGRK/GRK METAR and TAF weather

Enter ICAO airport designator
Station Type Date Time Source
KGRK METAR 2021/03/02 12:58 UTC NOAA

KGRK 021258Z AUTO 35008KT 10SM CLR 04/03 A3027 RMK AO2 SLP254 T00370025


Station Type Date Time Source
KGRK Decoded METAR 2021/03/02 12:58 UTC NOAA

Fort Hood, Robert Gray AAF Ft Hood, TX, United States (KGRK) 31-04N 097-49W
Mar 02, 2021 - 07:58 AM EST / 2021.03.02 1258 UTC
Wind: from the N (350 degrees) at 9 MPH (8 KT):0
Visibility: 10 mile(s):0
Sky conditions: clear
Temperature: 38.7 F (3.7 C)
Dew Point: 36.5 F (2.5 C)
Relative Humidity: 91%
Pressure (altimeter): 30.27 in. Hg (1025 hPa)
ob: KGRK 021258Z AUTO 35008KT 10SM CLR 04/03 A3027 RMK AO2 SLP254 T00370025
cycle: 13

Station Type Date Time Source
KGRK TAF 2021/03/02 08:17 UTC NOAA

TAF KGRK 020800Z 0208/0314 01006KT 9999 OVC080 QNH3015INS
BECMG 0212/0213 34009KT 9999 SCT080 QNH3030INS
BECMG 0216/0217 02006KT 9999 FEW150 QNH3030INS
BECMG 0220/0221 VRB06KT 9999 SKC QNH3020INS TX14/0222Z TN04/0308Z

Example: see airport list